Time;durP1;ratioP1;P1;durP2;ratioP2;P2;SDS_P1;SDS_P2;PMS_P1;PMS_P2;Temp;Humidity;BMP_temperature;BMP_pressure;BME280_temperature;BME280_humidity;BME280_pressure;Samples;Min_cycle;Max_cycle;Signal;HPM_P1;HPM_P2
2021/12/03 00:01:22;;;;;;;;;;;7.80;58.10;;;;;;5073232;28;19908;-64
2021/12/03 00:03:48;;;;;;;;;;;7.70;58.20;;;;;;5073212;28;19977;-64
2021/12/03 00:06:14;;;;;;;;;;;7.60;58.30;;;;;;5073551;28;20425;-64
2021/12/03 00:08:40;;;;;;;;;;;7.50;58.30;;;;;;5073197;28;19909;-64
2021/12/03 00:11:09;;;;;;;;;;;7.40;58.30;;;;;;5054794;28;20259;-64
2021/12/03 00:13:35;;;;;;;;;;;7.30;58.40;;;;;;5073117;28;19970;-64
2021/12/03 00:16:01;;;;;;;;;;;7.30;58.50;;;;;;5072907;28;19920;-64
2021/12/03 00:18:27;;;;;;;;;;;7.20;58.60;;;;;;5073044;28;19940;-64
2021/12/03 00:20:53;;;;;;;;;;;7.10;58.60;;;;;;5073065;28;20005;-64
2021/12/03 00:23:19;;;;;;;;;;;7.10;58.80;;;;;;5073058;28;19954;-64
2021/12/03 00:25:45;;;;;;;;;;;7.10;58.90;;;;;;5073057;28;19909;-64
2021/12/03 00:28:10;;;;;;;;;;;7.10;59.00;;;;;;5072975;28;19908;-64
2021/12/03 00:30:37;;;;;;;;;;;7.00;59.10;;;;;;5072921;28;19908;-65
2021/12/03 00:33:03;;;;;;;;;;;7.00;59.10;;;;;;5072859;28;19954;-64
2021/12/03 00:35:30;;;;;;;;;;;7.00;59.20;;;;;;5072838;28;19919;-64
2021/12/03 00:37:55;;;;;;;;;;;6.90;59.20;;;;;;5072904;28;19908;-64
2021/12/03 00:40:30;;;;;;;;;;;7.00;59.40;;;;;;5072826;28;19916;-64
2021/12/03 00:42:56;;;;;;;;;;;7.00;59.50;;;;;;5054855;28;19909;-65
2021/12/03 00:45:22;;;;;;;;;;;6.90;59.60;;;;;;5054800;28;20327;-65
2021/12/03 00:47:48;;;;;;;;;;;7.00;59.70;;;;;;5072790;28;19916;-65
2021/12/03 00:50:15;;;;;;;;;;;7.00;59.70;;;;;;5072708;28;19908;-65
2021/12/03 00:52:41;;;;;;;;;;;7.00;59.80;;;;;;5072721;28;20495;-65
2021/12/03 00:55:07;;;;;;;;;;;7.00;59.80;;;;;;5072621;28;20007;-64
2021/12/03 00:57:33;;;;;;;;;;;7.10;59.90;;;;;;5072676;28;19909;-64
2021/12/03 00:59:59;;;;;;;;;;;7.10;59.90;;;;;;5072605;28;19916;-65
2021/12/03 01:02:24;;;;;;;;;;;7.10;59.90;;;;;;5072590;28;20414;-64
2021/12/03 01:04:50;;;;;;;;;;;7.10;59.90;;;;;;5072545;28;20308;-65
2021/12/03 01:07:16;;;;;;;;;;;7.10;59.90;;;;;;5072569;28;19908;-64
2021/12/03 01:09:43;;;;;;;;;;;7.20;59.90;;;;;;5072528;28;19962;-65
2021/12/03 01:12:09;;;;;;;;;;;7.20;59.90;;;;;;5072508;28;20376;-65
2021/12/03 01:14:34;;;;;;;;;;;7.30;59.90;;;;;;5072223;28;19913;-64
2021/12/03 01:17:00;;;;;;;;;;;7.30;59.80;;;;;;5072498;28;19920;-65
2021/12/03 01:19:26;;;;;;;;;;;7.30;59.80;;;;;;5072438;28;20417;-65
2021/12/03 01:21:51;;;;;;;;;;;7.40;59.80;;;;;;5072435;28;20381;-64
2021/12/03 01:24:17;;;;;;;;;;;7.40;59.70;;;;;;5075695;28;19908;-65
2021/12/03 01:26:44;;;;;;;;;;;7.40;59.70;;;;;;5076083;28;20411;-65
2021/12/03 01:29:10;;;;;;;;;;;7.40;59.70;;;;;;5075980;28;19915;-65
2021/12/03 01:31:36;;;;;;;;;;;7.50;59.70;;;;;;5075849;28;20282;-65
2021/12/03 01:34:02;;;;;;;;;;;7.40;59.60;;;;;;5075876;28;19919;-65
2021/12/03 01:36:28;;;;;;;;;;;7.50;59.60;;;;;;5075750;28;19919;-66
2021/12/03 01:38:54;;;;;;;;;;;7.50;59.50;;;;;;5075691;28;19913;-65
2021/12/03 01:41:19;;;;;;;;;;;7.50;59.50;;;;;;5075834;28;20336;-65
2021/12/03 01:43:45;;;;;;;;;;;7.60;59.50;;;;;;5075766;28;19970;-66
2021/12/03 01:46:12;;;;;;;;;;;7.60;59.50;;;;;;5075724;28;20003;-65
2021/12/03 01:48:39;;;;;;;;;;;7.60;59.50;;;;;;5075597;28;19908;-65
2021/12/03 01:51:05;;;;;;;;;;;7.70;59.60;;;;;;5075666;28;19958;-65
2021/12/03 01:53:33;;;;;;;;;;;7.70;59.50;;;;;;5075507;28;19909;-65
2021/12/03 01:56:01;;;;;;;;;;;7.80;59.50;;;;;;5075491;28;19966;-66
2021/12/03 01:58:27;;;;;;;;;;;7.80;59.40;;;;;;5075463;28;19958;-65
2021/12/03 02:00:54;;;;;;;;;;;7.80;59.40;;;;;;5075418;28;19987;-65
2021/12/03 02:03:21;;;;;;;;;;;7.90;59.40;;;;;;5075253;28;20436;-65
2021/12/03 02:05:47;;;;;;;;;;;7.90;59.30;;;;;;5075232;28;19912;-65
2021/12/03 02:08:13;;;;;;;;;;;7.90;59.30;;;;;;5075179;28;19975;-65
2021/12/03 02:10:39;;;;;;;;;;;7.90;59.20;;;;;;5075129;28;19930;-65
2021/12/03 02:13:05;;;;;;;;;;;7.90;59.20;;;;;;5075067;28;19909;-65
2021/12/03 02:15:31;;;;;;;;;;;8.00;59.20;;;;;;5074881;28;19920;-65
2021/12/03 02:17:57;;;;;;;;;;;8.00;59.30;;;;;;5075053;28;19913;-65
2021/12/03 02:20:23;;;;;;;;;;;8.00;59.30;;;;;;5074951;28;19959;-65
2021/12/03 02:22:49;;;;;;;;;;;8.00;59.20;;;;;;5074953;28;19939;-65
2021/12/03 02:25:20;;;;;;;;;;;8.00;59.30;;;;;;5074844;28;20313;-65
2021/12/03 02:27:47;;;;;;;;;;;8.00;59.30;;;;;;5074915;28;19908;-65
2021/12/03 02:30:13;;;;;;;;;;;8.10;59.30;;;;;;5074703;28;19909;-65
2021/12/03 02:32:39;;;;;;;;;;;8.10;59.30;;;;;;5074880;28;19915;-65
2021/12/03 02:35:05;;;;;;;;;;;8.10;59.30;;;;;;5074396;28;20369;-65
2021/12/03 02:37:31;;;;;;;;;;;8.10;59.30;;;;;;5074626;28;20003;-65
2021/12/03 02:39:56;;;;;;;;;;;8.20;59.30;;;;;;5074561;28;19991;-65
2021/12/03 02:42:22;;;;;;;;;;;8.20;59.30;;;;;;5074612;28;19914;-66
2021/12/03 02:44:48;;;;;;;;;;;8.20;59.20;;;;;;5074616;28;19975;-65
2021/12/03 02:47:13;;;;;;;;;;;8.30;59.20;;;;;;5074609;28;20344;-65
2021/12/03 02:49:40;;;;;;;;;;;8.20;59.10;;;;;;5074564;28;19963;-66
2021/12/03 02:52:06;;;;;;;;;;;8.20;59.10;;;;;;5056632;28;19915;-65
2021/12/03 02:54:32;;;;;;;;;;;8.20;59.00;;;;;;5074327;28;19908;-65
2021/12/03 02:56:58;;;;;;;;;;;8.20;58.90;;;;;;5074373;28;19915;-65
2021/12/03 02:59:23;;;;;;;;;;;8.20;58.90;;;;;;5074257;28;19908;-65
2021/12/03 03:01:49;;;;;;;;;;;8.20;59.00;;;;;;5074202;28;20384;-65
2021/12/03 03:04:14;;;;;;;;;;;8.20;58.90;;;;;;5074167;28;19908;-65
2021/12/03 03:06:40;;;;;;;;;;;8.20;58.80;;;;;;5074088;28;20401;-65
2021/12/03 03:09:11;;;;;;;;;;;8.20;58.90;;;;;;5074062;28;20332;-65
2021/12/03 03:11:37;;;;;;;;;;;8.10;58.80;;;;;;5074015;28;19955;-65
2021/12/03 03:14:03;;;;;;;;;;;8.10;58.80;;;;;;5073969;28;19952;-65
2021/12/03 03:16:29;;;;;;;;;;;8.10;58.80;;;;;;5073637;28;20007;-65
2021/12/03 03:18:54;;;;;;;;;;;8.10;58.70;;;;;;5074184;28;20354;-65
2021/12/03 03:21:20;;;;;;;;;;;8.10;58.70;;;;;;5073788;28;19913;-65
2021/12/03 03:23:46;;;;;;;;;;;8.10;58.70;;;;;;5055922;28;19915;-65
2021/12/03 03:26:12;;;;;;;;;;;8.00;58.60;;;;;;5073759;28;19909;-65
2021/12/03 03:28:39;;;;;;;;;;;8.00;58.60;;;;;;5073571;28;20420;-65
2021/12/03 03:31:06;;;;;;;;;;;8.00;58.50;;;;;;5073713;28;19916;-65
2021/12/03 03:33:32;;;;;;;;;;;7.90;58.50;;;;;;5073544;28;19915;-65
2021/12/03 03:35:58;;;;;;;;;;;7.90;59.00;;;;;;5073546;28;19917;-65
2021/12/03 03:38:24;;;;;;;;;;;7.80;58.40;;;;;;5073478;28;19909;-65
2021/12/03 03:40:49;;;;;;;;;;;7.80;58.40;;;;;;5073588;28;20012;-65
2021/12/03 03:43:16;;;;;;;;;;;7.70;58.30;;;;;;5073418;28;19909;-65
2021/12/03 03:45:42;;;;;;;;;;;7.70;58.20;;;;;;5072950;28;19909;-65
2021/12/03 03:48:08;;;;;;;;;;;7.60;58.10;;;;;;5073476;28;19931;-65
2021/12/03 03:50:34;;;;;;;;;;;7.60;58.20;;;;;;5073414;28;19993;-65
2021/12/03 03:53:00;;;;;;;;;;;7.50;58.10;;;;;;5073359;28;19974;-65
2021/12/03 03:55:26;;;;;;;;;;;7.40;58.00;;;;;;5073198;28;19913;-65
2021/12/03 03:57:54;;;;;;;;;;;7.40;57.90;;;;;;5073308;28;19908;-65
2021/12/03 04:00:23;;;;;;;;;;;7.30;57.90;;;;;;5073230;28;19936;-65
2021/12/03 04:02:48;;;;;;;;;;;7.30;57.80;;;;;;5073240;28;19943;-65
2021/12/03 04:05:14;;;;;;;;;;;7.20;57.80;;;;;;5073110;28;19951;-65
2021/12/03 04:07:40;;;;;;;;;;;7.10;57.80;;;;;;5073185;28;19944;-66
2021/12/03 04:10:06;;;;;;;;;;;7.10;57.70;;;;;;5073154;28;19944;-65
2021/12/03 04:12:32;;;;;;;;;;;7.10;57.70;;;;;;5073081;28;20003;-65
2021/12/03 04:14:58;;;;;;;;;;;7.00;57.70;;;;;;5054869;28;20008;-65
2021/12/03 04:17:24;;;;;;;;;;;6.90;57.70;;;;;;5055149;28;19909;-65
2021/12/03 04:19:51;;;;;;;;;;;6.90;57.80;;;;;;5072456;28;20221;-65
2021/12/03 04:22:23;;;;;;;;;;;6.80;57.70;;;;;;5073037;28;19915;-65
2021/12/03 04:24:49;;;;;;;;;;;6.80;57.80;;;;;;5072954;28;19911;-65
2021/12/03 04:27:14;;;;;;;;;;;6.70;57.80;;;;;;5072867;28;19919;-65
2021/12/03 04:29:40;;;;;;;;;;;6.70;57.90;;;;;;5072841;28;19905;-65
2021/12/03 04:32:07;;;;;;;;;;;6.70;58.00;;;;;;5072886;28;20373;-65
2021/12/03 04:34:34;;;;;;;;;;;6.70;58.00;;;;;;5072784;28;19995;-65
2021/12/03 04:37:00;;;;;;;;;;;6.70;58.00;;;;;;5054912;28;20327;-65
2021/12/03 04:39:25;;;;;;;;;;;6.70;58.10;;;;;;5072811;28;19992;-65
2021/12/03 04:41:51;;;;;;;;;;;6.70;58.10;;;;;;5073103;28;19908;-65
2021/12/03 04:44:16;;;;;;;;;;;6.70;58.30;;;;;;5072792;28;19905;-65
2021/12/03 04:46:42;;;;;;;;;;;6.70;58.20;;;;;;5072751;28;19912;-64
2021/12/03 04:49:08;;;;;;;;;;;6.80;58.30;;;;;;5072703;28;19916;-64
2021/12/03 04:51:33;;;;;;;;;;;6.80;58.30;;;;;;5072684;28;19912;-64
2021/12/03 04:53:59;;;;;;;;;;;6.90;58.30;;;;;;5072605;28;19958;-64
2021/12/03 04:56:25;;;;;;;;;;;6.90;58.30;;;;;;5072994;28;20011;-64
2021/12/03 04:58:50;;;;;;;;;;;6.90;58.20;;;;;;5076535;28;19912;-64
2021/12/03 05:01:16;;;;;;;;;;;7.00;58.20;;;;;;5076583;28;20003;-64
2021/12/03 05:03:41;;;;;;;;;;;7.00;58.20;;;;;;5076271;28;19932;-64
2021/12/03 05:06:09;;;;;;;;;;;7.00;58.30;;;;;;5076115;28;19909;-64
2021/12/03 05:08:35;;;;;;;;;;;7.10;58.30;;;;;;5076010;28;19908;-64
2021/12/03 05:11:01;;;;;;;;;;;7.10;58.30;;;;;;5076026;28;20254;-64
2021/12/03 05:13:28;;;;;;;;;;;7.10;58.20;;;;;;5076015;28;19913;-64
2021/12/03 05:15:54;;;;;;;;;;;7.20;58.20;;;;;;5074424;28;19966;-64
2021/12/03 05:18:21;;;;;;;;;;;7.20;58.20;;;;;;5076072;28;19956;-65
2021/12/03 05:20:47;;;;;;;;;;;7.30;58.20;;;;;;5076058;28;19977;-65
2021/12/03 05:23:13;;;;;;;;;;;7.30;58.20;;;;;;5075901;28;19908;-64
2021/12/03 05:25:40;;;;;;;;;;;7.30;58.20;;;;;;5075772;28;19959;-65
2021/12/03 05:28:06;;;;;;;;;;;7.40;58.20;;;;;;5075768;28;19916;-65
2021/12/03 05:30:32;;;;;;;;;;;7.40;58.20;;;;;;5075773;28;20270;-65
2021/12/03 05:32:58;;;;;;;;;;;7.40;58.10;;;;;;5075728;28;20286;-64
2021/12/03 05:35:27;;;;;;;;;;;7.40;58.00;;;;;;5075751;28;19966;-64
2021/12/03 05:37:53;;;;;;;;;;;7.40;57.90;;;;;;5075703;28;19913;-64
2021/12/03 05:40:19;;;;;;;;;;;7.40;57.90;;;;;;5075586;28;19909;-66
2021/12/03 05:42:45;;;;;;;;;;;7.40;57.90;;;;;;5075663;28;19931;-65
2021/12/03 05:45:12;;;;;;;;;;;7.30;57.80;;;;;;5075458;28;20433;-64
2021/12/03 05:47:38;;;;;;;;;;;7.30;57.80;;;;;;5075498;28;19908;-64
2021/12/03 05:50:04;;;;;;;;;;;7.30;57.80;;;;;;5075235;28;19908;-64
2021/12/03 05:52:30;;;;;;;;;;;7.30;57.80;;;;;;5075351;28;19908;-64
2021/12/03 05:54:55;;;;;;;;;;;7.30;57.90;;;;;;5075330;28;19987;-65
2021/12/03 05:57:21;;;;;;;;;;;7.30;57.90;;;;;;5075186;28;19908;-64
2021/12/03 05:59:47;;;;;;;;;;;7.20;58.00;;;;;;5075257;28;20411;-64
2021/12/03 06:02:12;;;;;;;;;;;7.30;58.10;;;;;;5075202;28;19995;-64
2021/12/03 06:04:38;;;;;;;;;;;7.30;58.10;;;;;;5075072;28;19912;-64
2021/12/03 06:07:04;;;;;;;;;;;7.30;58.10;;;;;;5074971;28;19908;-64
2021/12/03 06:09:30;;;;;;;;;;;7.20;58.00;;;;;;5074367;28;19908;-64
2021/12/03 06:11:56;;;;;;;;;;;7.30;58.00;;;;;;5074910;28;19908;-65
2021/12/03 06:14:21;;;;;;;;;;;7.30;58.00;;;;;;5074712;28;20267;-65
2021/12/03 06:16:47;;;;;;;;;;;7.20;57.80;;;;;;5074603;28;20015;-65
2021/12/03 06:19:13;;;;;;;;;;;7.20;57.70;;;;;;5074749;28;19915;-65
2021/12/03 06:21:39;;;;;;;;;;;7.10;57.70;;;;;;5074678;28;19909;-65
2021/12/03 06:24:05;;;;;;;;;;;7.10;57.80;;;;;;5074407;28;19908;-64
2021/12/03 06:26:30;;;;;;;;;;;7.10;57.90;;;;;;5074568;28;20016;-65
2021/12/03 06:28:56;;;;;;;;;;;7.10;58.10;;;;;;5074453;28;20354;-65
2021/12/03 06:31:21;;;;;;;;;;;7.10;58.20;;;;;;5074424;28;19915;-65
2021/12/03 06:33:47;;;;;;;;;;;7.00;58.10;;;;;;5074367;28;19912;-64
2021/12/03 06:36:13;;;;;;;;;;;7.10;58.10;;;;;;5074261;28;19943;-65
2021/12/03 06:38:39;;;;;;;;;;;7.10;58.10;;;;;;5056322;28;19965;-64
2021/12/03 06:41:05;;;;;;;;;;;7.10;58.00;;;;;;5074439;28;19980;-64
2021/12/03 06:43:31;;;;;;;;;;;7.10;58.10;;;;;;5074378;28;19908;-64
2021/12/03 06:45:56;;;;;;;;;;;7.10;58.00;;;;;;5074272;28;20277;-64
2021/12/03 06:48:22;;;;;;;;;;;7.10;57.90;;;;;;5073959;28;19909;-63
2021/12/03 06:50:50;;;;;;;;;;;7.10;57.80;;;;;;5074149;28;19908;-64
2021/12/03 06:53:17;;;;;;;;;;;7.10;57.80;;;;;;5074038;28;20003;-64
2021/12/03 06:56:03;;;;;;;;;;;7.10;57.70;;;;;;5074017;28;20003;-64
2021/12/03 06:58:29;;;;;;;;;;;7.10;57.60;;;;;;5074054;28;19912;-65
2021/12/03 07:00:56;;;;;;;;;;;7.00;57.50;;;;;;5073895;28;19915;-65
2021/12/03 07:03:24;;;;;;;;;;;6.90;57.50;;;;;;5073794;28;19916;-65
2021/12/03 07:05:50;;;;;;;;;;;6.90;57.50;;;;;;5073765;28;19909;-65
2021/12/03 07:08:15;;;;;;;;;;;6.80;57.60;;;;;;5073752;28;19909;-64
2021/12/03 07:10:41;;;;;;;;;;;6.80;57.70;;;;;;5073794;28;20043;-65
2021/12/03 07:13:07;;;;;;;;;;;6.80;58.00;;;;;;5073728;28;20354;-64
2021/12/03 07:15:33;;;;;;;;;;;6.70;57.90;;;;;;5073333;28;19928;-65
2021/12/03 07:17:58;;;;;;;;;;;6.80;58.00;;;;;;5073767;28;19915;-64
2021/12/03 07:20:25;;;;;;;;;;;6.80;58.20;;;;;;5054634;28;19905;-64
2021/12/03 07:22:51;;;;;;;;;;;6.80;58.30;;;;;;5073460;28;19916;-64
2021/12/03 07:25:17;;;;;;;;;;;6.80;58.30;;;;;;5073517;28;19905;-64
2021/12/03 07:27:43;;;;;;;;;;;6.90;58.40;;;;;;5073341;28;19909;-65
2021/12/03 07:30:10;;;;;;;;;;;6.90;58.40;;;;;;5073151;28;19962;-64
2021/12/03 07:32:36;;;;;;;;;;;6.90;58.30;;;;;;5073142;28;19915;-65
2021/12/03 07:35:01;;;;;;;;;;;7.00;58.40;;;;;;5073088;28;19955;-65
2021/12/03 07:37:27;;;;;;;;;;;7.00;58.30;;;;;;5073295;28;19956;-65
2021/12/03 07:39:53;;;;;;;;;;;7.10;58.40;;;;;;5073246;28;19909;-65
2021/12/03 07:42:18;;;;;;;;;;;7.10;58.50;;;;;;5073535;28;19908;-65
2021/12/03 07:44:44;;;;;;;;;;;7.20;58.30;;;;;;5073367;28;19966;-65
2021/12/03 07:47:09;;;;;;;;;;;7.30;58.20;;;;;;5073254;28;20366;-65
2021/12/03 07:49:36;;;;;;;;;;;7.30;58.10;;;;;;5073279;28;19915;-65
2021/12/03 07:52:03;;;;;;;;;;;7.30;57.90;;;;;;5073566;28;19913;-65
2021/12/03 07:54:28;;;;;;;;;;;7.30;57.80;;;;;;5073070;28;20351;-65
2021/12/03 07:56:54;;;;;;;;;;;7.40;57.80;;;;;;5073122;28;19908;-65
2021/12/03 07:59:19;;;;;;;;;;;7.30;57.50;;;;;;5073050;28;19909;-65
2021/12/03 08:01:45;;;;;;;;;;;7.30;57.60;;;;;;5073110;28;19952;-65
2021/12/03 08:04:11;;;;;;;;;;;7.30;57.50;;;;;;5073036;28;19913;-65
2021/12/03 08:06:39;;;;;;;;;;;7.30;57.60;;;;;;5073100;28;19913;-65
2021/12/03 08:09:06;;;;;;;;;;;7.30;57.50;;;;;;5073166;28;19958;-65
2021/12/03 08:11:31;;;;;;;;;;;7.40;57.60;;;;;;5073067;28;19909;-65
2021/12/03 08:13:57;;;;;;;;;;;7.40;57.50;;;;;;5073509;28;19912;-65
2021/12/03 08:16:23;;;;;;;;;;;7.40;57.50;;;;;;5054503;28;19924;-65
2021/12/03 08:18:48;;;;;;;;;;;7.40;57.50;;;;;;5072989;28;19909;-65
2021/12/03 08:21:14;;;;;;;;;;;7.40;57.60;;;;;;5072545;28;19908;-65
2021/12/03 08:23:40;;;;;;;;;;;7.50;57.70;;;;;;5072756;28;20274;-65
2021/12/03 08:26:05;;;;;;;;;;;7.60;57.70;;;;;;5072608;28;19913;-65
2021/12/03 08:28:32;;;;;;;;;;;7.70;57.80;;;;;;5072667;28;19908;-65
2021/12/03 08:30:59;;;;;;;;;;;7.70;57.50;;;;;;5072670;28;19948;-65
2021/12/03 08:33:24;;;;;;;;;;;7.80;57.40;;;;;;5076606;28;19908;-64
2021/12/03 08:35:50;;;;;;;;;;;7.80;57.40;;;;;;5076748;28;20327;-64
2021/12/03 08:38:16;;;;;;;;;;;7.90;57.40;;;;;;5076724;28;19909;-65
2021/12/03 08:40:41;;;;;;;;;;;8.00;57.40;;;;;;5076646;28;19932;-65
2021/12/03 08:43:07;;;;;;;;;;;8.00;57.30;;;;;;5076622;28;19958;-65
2021/12/03 08:45:35;;;;;;;;;;;8.10;57.20;;;;;;5076554;28;19976;-65
2021/12/03 08:48:02;;;;;;;;;;;8.20;57.20;;;;;;5076537;28;19909;-65
2021/12/03 08:50:33;;;;;;;;;;;8.20;57.00;;;;;;5076482;28;19919;-65
2021/12/03 08:55:39;;;;;;;;;;;8.30;56.70;;;;;;5076700;28;20366;-64
2021/12/03 08:58:05;;;;;;;;;;;8.30;56.50;;;;;;5076350;28;19912;-66
2021/12/03 09:00:33;;;;;;;;;;;8.30;56.50;;;;;;5076228;28;19938;-65
2021/12/03 09:02:58;;;;;;;;;;;8.30;56.40;;;;;;5076357;28;19999;-65
2021/12/03 09:05:30;;;;;;;;;;;8.30;56.40;;;;;;5076302;28;19943;-65
2021/12/03 09:07:56;;;;;;;;;;;8.30;56.40;;;;;;5076560;28;19909;-65
2021/12/03 09:10:22;;;;;;;;;;;8.30;56.50;;;;;;5076077;28;19908;-66
2021/12/03 09:12:47;;;;;;;;;;;8.30;56.70;;;;;;5076075;28;19908;-66
2021/12/03 09:15:16;;;;;;;;;;;8.40;56.80;;;;;;5075827;28;19921;-66
2021/12/03 09:20:30;;;;;;;;;;;8.50;56.80;;;;;;5076009;28;19915;-66
2021/12/03 09:23:03;;;;;;;;;;;8.50;56.50;;;;;;5058042;28;20366;-64
2021/12/03 09:25:38;;;;;;;;;;;8.50;56.40;;;;;;5075923;28;20374;-65
2021/12/03 09:28:07;;;;;;;;;;;8.50;56.30;;;;;;5075946;28;20354;-65
2021/12/03 09:30:38;;;;;;;;;;;8.50;56.30;;;;;;5076077;28;20369;-65
2021/12/03 09:33:07;;;;;;;;;;;8.50;56.20;;;;;;5076287;28;20282;-64
2021/12/03 09:35:35;;;;;;;;;;;8.50;56.20;;;;;;5075825;28;19937;-65
2021/12/03 09:38:00;;;;;;;;;;;8.60;56.40;;;;;;5075738;28;19916;-66
2021/12/03 09:40:30;;;;;;;;;;;8.70;56.40;;;;;;5075588;28;20056;-65
2021/12/03 09:42:55;;;;;;;;;;;8.80;56.30;;;;;;5074778;28;19981;-65
2021/12/03 09:45:21;;;;;;;;;;;8.80;56.20;;;;;;5075225;28;19987;-65
2021/12/03 09:47:48;;;;;;;;;;;8.90;56.10;;;;;;5075570;28;19930;-65
2021/12/03 09:50:14;;;;;;;;;;;9.00;55.80;;;;;;5075511;28;19931;-65
2021/12/03 09:53:12;;;;;;;;;;;9.00;55.70;;;;;;5075546;28;19914;-65
2021/12/03 09:55:38;;;;;;;;;;;9.10;55.50;;;;;;5075297;28;19913;-65
2021/12/03 10:01:04;;;;;;;;;;;9.20;54.80;;;;;;5075286;28;20305;-65
2021/12/03 10:03:47;;;;;;;;;;;9.30;54.60;;;;;;5075150;28;19912;-65
2021/12/03 10:15:32;;;;;;;;;;;9.20;53.50;;;;;;4954082;29;20350;-65
2021/12/03 10:44:32;;;;;;;;;;;9.00;52.80;;;;;;5012398;28;19917;-64
2021/12/03 10:47:44;;;;;;;;;;;9.00;52.90;;;;;;5012500;28;19907;-64
2021/12/03 10:53:13;;;;;;;;;;;9.10;53.30;;;;;;5054218;28;19913;-65
2021/12/03 10:56:07;;;;;;;;;;;9.20;53.60;;;;;;5053739;28;19920;-65
2021/12/03 11:04:39;;;;;;;;;;;9.80;53.50;;;;;;5053957;28;19916;-65
2021/12/03 11:18:18;;;;;;;;;;;10.10;51.60;;;;;;5073556;28;20342;-64
2021/12/03 11:27:11;;;;;;;;;;;9.90;51.00;;;;;;5073676;28;19915;-64
2021/12/03 11:29:34;;;;;;;;;;;9.80;51.20;;;;;;5073208;28;20432;-65
2021/12/03 11:52:07;;;;;;;;;;;9.80;51.00;;;;;;5073234;28;19908;-65
2021/12/03 12:10:46;;;;;;;;;;;9.70;50.90;;;;;;5073040;28;19915;-64
2021/12/03 13:13:41;;;;;;;;;;;8.60;52.70;;;;;;5071849;28;19932;-65
2021/12/03 13:59:51;;;;;;;;;;;8.60;52.00;;;;;;5075220;28;20330;-65
2021/12/03 14:02:53;;;;;;;;;;;8.50;52.00;;;;;;5075146;28;20012;-65
2021/12/03 14:43:02;;;;;;;;;;;7.90;51.30;;;;;;5074557;28;19954;-65
2021/12/03 14:48:25;;;;;;;;;;;7.70;51.30;;;;;;5074537;28;20405;-65
2021/12/03 14:51:39;;;;;;;;;;;7.60;51.40;;;;;;5074181;28;19908;-65
2021/12/03 14:57:10;;;;;;;;;;;7.40;51.60;;;;;;5073803;28;19920;-65
2021/12/03 14:59:39;;;;;;;;;;;7.30;51.60;;;;;;5073839;28;19916;-65
2021/12/03 15:02:18;;;;;;;;;;;7.30;51.70;;;;;;5073908;28;19919;-65
2021/12/03 15:07:44;;;;;;;;;;;7.10;51.80;;;;;;5074157;28;19959;-65
2021/12/03 15:10:19;;;;;;;;;;;7.10;51.90;;;;;;5073700;28;19908;-65
2021/12/03 15:24:10;;;;;;;;;;;7.00;52.30;;;;;;5073669;28;20019;-65
2021/12/03 15:26:46;;;;;;;;;;;7.10;52.20;;;;;;5072871;28;20259;-65
2021/12/03 15:31:50;;;;;;;;;;;7.10;52.10;;;;;;5073772;28;19908;-65
2021/12/03 16:08:21;;;;;;;;;;;6.10;52.70;;;;;;5073094;28;19965;-65
2021/12/03 16:51:39;;;;;;;;;;;5.40;53.90;;;;;;4991357;28;20005;-65
2021/12/03 16:54:08;;;;;;;;;;;5.30;53.90;;;;;;5062254;28;19908;-65
2021/12/03 16:56:35;;;;;;;;;;;5.30;54.00;;;;;;5076421;28;19959;-65
2021/12/03 16:59:01;;;;;;;;;;;5.20;53.90;;;;;;5076624;28;19962;-65
2021/12/03 17:01:45;;;;;;;;;;;5.20;54.00;;;;;;5076544;28;19962;-65
2021/12/03 17:04:43;;;;;;;;;;;5.10;54.00;;;;;;5076466;28;19962;-65
2021/12/03 17:15:14;;;;;;;;;;;4.80;54.10;;;;;;5076153;28;19947;-65
2021/12/03 17:29:07;;;;;;;;;;;4.60;54.50;;;;;;5076034;28;19920;-65
2021/12/03 17:48:23;;;;;;;;;;;4.20;55.00;;;;;;5075756;28;19915;-65
2021/12/03 17:58:50;;;;;;;;;;;4.10;55.40;;;;;;5075671;28;20323;-65
2021/12/03 18:01:21;;;;;;;;;;;4.10;55.50;;;;;;5074180;28;20389;-65
2021/12/03 18:03:52;;;;;;;;;;;4.10;55.60;;;;;;5075066;28;20350;-65
2021/12/03 18:08:58;;;;;;;;;;;4.00;56.00;;;;;;5075642;28;19905;-65
2021/12/03 18:43:20;;;;;;;;;;;3.90;56.40;;;;;;5075176;28;19916;-65
2021/12/03 18:54:14;;;;;;;;;;;3.60;56.70;;;;;;5074644;28;19932;-66
2021/12/03 18:56:54;;;;;;;;;;;3.60;56.80;;;;;;5074462;28;19935;-65
2021/12/03 18:59:20;;;;;;;;;;;3.60;56.90;;;;;;5074324;28;20361;-65
2021/12/03 19:01:45;;;;;;;;;;;3.60;56.90;;;;;;5074097;28;19916;-65
2021/12/03 19:06:48;;;;;;;;;;;3.60;57.00;;;;;;5074039;28;19916;-65
2021/12/03 19:09:22;;;;;;;;;;;3.60;57.00;;;;;;5073939;28;19916;-65
2021/12/03 19:14:16;;;;;;;;;;;3.60;57.10;;;;;;5074131;28;19999;-65
2021/12/03 19:16:42;;;;;;;;;;;3.60;57.10;;;;;;5073736;28;19972;-65
2021/12/03 19:19:09;;;;;;;;;;;3.60;57.10;;;;;;5073980;28;19939;-64
2021/12/03 19:21:42;;;;;;;;;;;3.50;57.00;;;;;;5074315;28;20349;-65
2021/12/03 19:24:09;;;;;;;;;;;3.50;57.00;;;;;;5073967;28;19916;-64
2021/12/03 19:26:36;;;;;;;;;;;3.50;57.10;;;;;;5073762;28;19972;-65
2021/12/03 19:29:03;;;;;;;;;;;3.50;57.10;;;;;;5073816;28;19909;-64
2021/12/03 19:31:29;;;;;;;;;;;3.50;57.10;;;;;;5073760;28;19936;-65
2021/12/03 19:33:56;;;;;;;;;;;3.50;57.10;;;;;;5073694;28;19912;-65
2021/12/03 19:36:24;;;;;;;;;;;3.50;57.20;;;;;;5073653;28;20389;-64
2021/12/03 19:38:52;;;;;;;;;;;3.50;57.10;;;;;;5073475;28;19908;-64
2021/12/03 19:41:45;;;;;;;;;;;3.50;57.10;;;;;;5073602;28;20326;-65
2021/12/03 19:44:09;;;;;;;;;;;3.40;57.10;;;;;;5072560;28;20296;-64
2021/12/03 19:46:36;;;;;;;;;;;3.40;57.20;;;;;;5073533;28;19992;-65
2021/12/03 19:51:40;;;;;;;;;;;3.40;57.20;;;;;;5073547;28;19909;-64
2021/12/03 19:54:06;;;;;;;;;;;3.30;57.20;;;;;;5073519;28;19912;-64
2021/12/03 19:56:32;;;;;;;;;;;3.30;57.30;;;;;;5055485;28;19919;-64
2021/12/03 19:58:59;;;;;;;;;;;3.30;57.40;;;;;;5073368;28;19908;-64
2021/12/03 20:01:25;;;;;;;;;;;3.20;57.30;;;;;;5073343;28;19916;-64
2021/12/03 20:03:53;;;;;;;;;;;3.20;57.40;;;;;;5073058;28;19931;-64
2021/12/03 20:06:22;;;;;;;;;;;3.20;57.50;;;;;;5073294;28;20378;-64
2021/12/03 20:08:52;;;;;;;;;;;3.20;57.70;;;;;;5073234;28;19908;-64
2021/12/03 20:11:18;;;;;;;;;;;3.20;57.80;;;;;;5073272;28;20332;-64
2021/12/03 20:13:48;;;;;;;;;;;3.20;57.90;;;;;;5073587;28;20006;-64
2021/12/03 20:16:23;;;;;;;;;;;3.10;57.90;;;;;;5072882;28;20492;-64
2021/12/03 20:18:52;;;;;;;;;;;3.10;58.40;;;;;;5073166;28;20370;-64
2021/12/03 20:21:19;;;;;;;;;;;3.10;57.80;;;;;;5073138;28;20476;-64
2021/12/03 20:29:15;;;;;;;;;;;3.00;57.90;;;;;;4990976;28;20004;-64
2021/12/03 20:31:46;;;;;;;;;;;3.00;57.90;;;;;;4991677;28;20000;-64
2021/12/03 20:34:45;;;;;;;;;;;3.00;57.90;;;;;;4991598;28;19933;-66
2021/12/03 20:37:20;;;;;;;;;;;3.00;58.00;;;;;;4991494;28;20369;-64
2021/12/03 20:39:47;;;;;;;;;;;2.90;58.20;;;;;;4991578;28;19917;-64
2021/12/03 20:42:27;;;;;;;;;;;2.90;58.40;;;;;;4991618;28;19918;-64
2021/12/03 20:45:10;;;;;;;;;;;2.90;58.50;;;;;;4991647;28;20364;-65
2021/12/03 20:50:23;;;;;;;;;;;2.90;58.70;;;;;;4991577;28;20416;-64
2021/12/03 20:53:04;;;;;;;;;;;2.90;58.70;;;;;;4991497;28;19949;-64
2021/12/03 21:09:14;;;;;;;;;;;2.80;58.80;;;;;;5072795;28;19915;-65
2021/12/03 21:11:44;;;;;;;;;;;2.80;58.90;;;;;;5072641;28;19999;-65
2021/12/03 21:14:17;;;;;;;;;;;2.80;58.90;;;;;;5072631;28;19944;-65
2021/12/03 21:21:58;;;;;;;;;;;2.70;58.70;;;;;;5072544;28;19908;-65
2021/12/03 21:24:31;;;;;;;;;;;2.70;58.60;;;;;;5054502;28;19915;-65
2021/12/03 21:26:59;;;;;;;;;;;2.60;58.60;;;;;;5072446;28;20358;-65
2021/12/03 21:32:14;;;;;;;;;;;2.60;58.70;;;;;;5072441;28;19909;-65
2021/12/03 21:42:52;;;;;;;;;;;2.50;58.80;;;;;;5075957;28;19915;-65
2021/12/03 21:45:18;;;;;;;;;;;2.50;58.90;;;;;;5075869;28;19908;-65
2021/12/03 21:47:44;;;;;;;;;;;2.50;58.90;;;;;;5057981;28;19908;-65
2021/12/03 21:50:10;;;;;;;;;;;2.50;58.90;;;;;;5075764;28;19931;-65
2021/12/03 21:52:35;;;;;;;;;;;2.50;58.90;;;;;;5075776;28;19915;-65
2021/12/03 21:55:07;;;;;;;;;;;2.50;58.90;;;;;;5075653;28;19912;-66
2021/12/03 21:57:34;;;;;;;;;;;2.50;58.90;;;;;;5075981;28;19909;-65
2021/12/03 22:00:00;;;;;;;;;;;2.50;58.90;;;;;;5075473;28;20411;-65
2021/12/03 22:02:25;;;;;;;;;;;2.40;58.90;;;;;;5075627;28;19909;-65
2021/12/03 22:04:51;;;;;;;;;;;2.40;58.80;;;;;;5075519;28;19909;-65
2021/12/03 22:07:17;;;;;;;;;;;2.40;58.80;;;;;;5075486;28;19908;-65
2021/12/03 22:09:42;;;;;;;;;;;2.40;58.90;;;;;;5075483;28;20639;-65
2021/12/03 22:12:08;;;;;;;;;;;2.40;59.00;;;;;;5075400;28;19920;-65
2021/12/03 22:14:35;;;;;;;;;;;2.40;59.10;;;;;;5057071;28;19944;-65
2021/12/03 22:17:00;;;;;;;;;;;2.30;59.00;;;;;;5075144;28;20366;-65
2021/12/03 22:19:26;;;;;;;;;;;2.30;59.00;;;;;;5075332;28;19916;-65
2021/12/03 22:21:52;;;;;;;;;;;2.30;59.10;;;;;;5075252;28;19908;-65
2021/12/03 22:24:18;;;;;;;;;;;2.30;59.10;;;;;;5075171;28;19908;-65
2021/12/03 22:26:43;;;;;;;;;;;2.30;59.20;;;;;;5075175;28;19909;-65
2021/12/03 22:29:09;;;;;;;;;;;2.30;59.20;;;;;;5075114;28;20354;-65
2021/12/03 22:31:35;;;;;;;;;;;2.30;59.20;;;;;;5075065;28;19913;-65
2021/12/03 22:34:00;;;;;;;;;;;2.30;59.20;;;;;;5075004;28;19954;-65